Sibley, MO (64088)

04:40 AM CDT die 25o August, anno 2016 (GMT -0500)
County | | Change Station

Elev 876 ft 39.07 °N, 94.18 °W | Updated 9 minutes ago

Thunderstorms and Rain
Procellae Tonitruales Pluviaque
69.1 °F
Feels Like 69.1 °F
N
0.0
Ventus Variabilis Ventus from Inter Aquilonem et Eurum

Hodie
High -- | Low -- °F
--% Chance of Precip.
Yesterday
High -- | Low -- °F
Precip. -- in
Pressio 30.02 in
Visibilitas 4.0 milia passuum
Clouds Nubes Dispersae 900 ft
Plerumque Nubila 4100 ft
Aequaliter Nubila 6000 ft
Frigus in quo Ros apparet 68 °F
Umor 97%
Rainfall 0.60 in
Snow Depth Not available.
6:39 AM 7:57 PM
Waning Gibbous, 47% visible
METAR KGPH 250935Z AUTO 25003KT 4SM TSRA SCT009 BKN041 OVC060 21/21 A3002 RMK AO2 LTG DSNT NE E AND SW
Pressio 30.02 in
Visibilitas 4.0 milia passuum
Clouds Nubes Dispersae 900 ft
Plerumque Nubila 4100 ft
Aequaliter Nubila 6000 ft
Frigus in quo Ros apparet 68 °F
Umor 97%
Rainfall 0.60 in
Snow Depth Not available.
6:39 AM 7:57 PM
Waning Gibbous, 47% visible
METAR KGPH 250935Z AUTO 25003KT 4SM TSRA SCT009 BKN041 OVC060 21/21 A3002 RMK AO2 LTG DSNT NE E AND SW

10-Day Weather Forecast

Almanac

Astronomy

Aug. 25, 2016 Rise Set
Actual Time
Civil Twilight
Nautical Twilight
Astronomical Twilight
Moon
Length Of Visible Light
Length of Day
Tomorrow will be .
, % of the Moon is Illuminated

Today's Extremes

State Highs State Lows

Community

WunderPhotos

Upload Photos

1,934,814 photos uploaded!

WunderBlog® & News

Nearby

Air Quality

  Air Quality AQ Index Pollutant
Not available.

Snow Depth

Station Depth Elevation

Earthquake Activity

City Distance Mag. Time & Date
Minimum magnitude displayed is 2.5.

Coastal Water Temperatures

Locus Calor

Stations

Nearby Weather Stations

Station Location Temp Frigus Venti Frigus in quo Ros apparet Umor Ventus Precip. Elev Renovata Type
                   

Watches & Warnings

There are currently no watches in effect.